Airfield :
LOGIN :

Register | Disclaimer

   EN    FR    IT 

 










Legend :    VFR   Marginal VFR   IFR   Intensive IFR   Very Intensive IFR
Visi :
Ceiling :
>= 8 km
>= 3000ft
5 to 8 km
1000 to 3000 ft
1500m to 5 km
500 to 1000 ft
800 to 1500m
200 to 500 ft
< 800m
< 200 ft
Symbols :   Thunderstorms  Fog  Heavy snow  Heavy precipitations  Wind > 20 kt
SIGMETs :     Misc.  Thunderstorms  Icing  Turbulence  Mountain Waves  Volcanic Ashes







- Airport Elevation : 245 ft
- IATA code : BIQ
- Download approach charts


LFBZ - Biarritz

CURRENT METAR :
  • 161700Z AUTO 34009KT 310V050 9999 BKN012 BKN021 OVC031 22/20 Q1017 NOSIG

EXPIRED METARs :
  • 161630Z AUTO 33008KT 290V040 9999 BKN012 BKN019 BKN029 23/20 Q1017 NOSIG
  • 161600Z AUTO 32008KT 290V020 9999 BKN013 BKN019 BKN028 23/20 Q1017 NOSIG
  • 161530Z AUTO 33008KT 290V350 9999 FEW013 SCT022 BKN033 23/20 Q1017 BECMG BKN014 OVC030
  • 161500Z AUTO 31008KT 9999 BKN011 BKN020 OVC032 23/20 Q1017 TEMPO BKN009
  • 161430Z AUTO 30009KT 9999 BKN012 BKN022 OVC035 23/21 Q1017 TEMPO BKN009

TAF AMD TAF LFBZ
Valid from the 16 at 15:00 until the 17 at 12:00 UTC


161548Z 1615/1712 30010KT 9999 SCT015 OVC030
TEMPO 1615/1624 BKN014
PROB30
TEMPO 1700/1706 -SHRA BKN014
BECMG 1706/1707 4000 RA BKN010 OVC020
BECMG 1710/1712 9999 NSW BKN015
No reported NOTAMs for that airfield.



MET'MAP, your aeronautical weather chart ! - Copyright ORBIFLY December 2007 - Disclaimer

ORBIFLY MET'MAP TEAM :

Programming & Development : Alexandra Zaïnal
Concept & Development : Baudouin d'Aumeries
Co-Development & Prog : Marc-Olivier Méhu
Technical & hardware support : Manuel Goepfert

Contact : metmap@orbifly.com




SOURCES & CREDITS :

   NOAA